createdAt,value
2017-08-17T00:02:02.662Z,26.00
2017-08-17T00:04:30.136Z,25.80
2017-08-17T00:06:57.653Z,25.80
2017-08-17T00:09:25.134Z,25.60
2017-08-17T00:11:52.610Z,25.60
2017-08-17T00:14:20.124Z,25.40
2017-08-17T00:16:47.604Z,25.30
2017-08-17T00:19:15.845Z,25.30
2017-08-17T00:21:43.367Z,25.20
2017-08-17T00:24:10.895Z,25.20
2017-08-17T00:26:38.385Z,25.20
2017-08-17T00:29:06.529Z,25.20
2017-08-17T00:31:34.438Z,25.10
2017-08-17T00:34:02.452Z,25.10
2017-08-17T00:36:30.161Z,25.00
2017-08-17T00:38:57.644Z,25.00
2017-08-17T00:41:25.166Z,24.90
2017-08-17T00:43:52.682Z,24.80
2017-08-17T00:46:20.171Z,24.90
2017-08-17T00:48:48.429Z,24.90
2017-08-17T00:51:16.020Z,24.80
2017-08-17T00:53:44.266Z,24.90
2017-08-17T00:56:11.747Z,24.90
2017-08-17T00:58:40.013Z,24.80
2017-08-17T01:01:07.493Z,24.80
2017-08-17T01:03:35.087Z,24.80
2017-08-17T01:06:02.631Z,24.90
2017-08-17T01:08:30.618Z,24.80
2017-08-17T01:10:58.116Z,24.90
2017-08-17T01:13:25.621Z,25.00
2017-08-17T01:15:53.089Z,25.10
2017-08-17T01:18:20.560Z,25.00
2017-08-17T01:20:48.053Z,25.00
2017-08-17T01:23:15.531Z,25.10
2017-08-17T01:25:43.778Z,25.20
2017-08-17T01:28:11.293Z,25.20
2017-08-17T01:30:38.766Z,25.20
2017-08-17T01:33:06.239Z,25.30
2017-08-17T01:35:33.746Z,25.20
2017-08-17T01:38:02.001Z,25.40
2017-08-17T01:40:29.481Z,25.30
2017-08-17T01:42:57.745Z,25.20
2017-08-17T01:45:25.232Z,25.20
2017-08-17T01:47:52.723Z,24.90
2017-08-17T01:50:20.239Z,24.80
2017-08-17T01:52:48.487Z,24.70
2017-08-17T01:55:15.969Z,24.60
2017-08-17T01:57:44.242Z,24.70
2017-08-17T02:00:12.488Z,24.40
2017-08-17T02:02:39.980Z,24.40
2017-08-17T02:05:08.256Z,24.30
2017-08-17T02:07:36.502Z,24.20
2017-08-17T02:10:03.993Z,24.10
2017-08-17T02:12:32.274Z,24.40
2017-08-17T02:15:00.522Z,24.20
2017-08-17T02:17:28.004Z,24.10
2017-08-17T02:19:56.275Z,23.90
2017-08-17T02:22:24.542Z,23.90
2017-08-17T02:24:52.038Z,23.90
2017-08-17T02:27:19.545Z,24.00
2017-08-17T02:29:47.039Z,23.80
2017-08-17T02:32:15.278Z,24.20
2017-08-17T02:34:42.787Z,24.20
2017-08-17T02:37:10.262Z,24.20
2017-08-17T02:39:37.744Z,24.40
2017-08-17T02:42:05.241Z,24.60
2017-08-17T02:44:32.729Z,24.60
2017-08-17T02:47:00.225Z,24.40
2017-08-17T02:49:27.754Z,24.10
2017-08-17T02:51:55.255Z,23.80
2017-08-17T02:54:22.746Z,24.20
2017-08-17T02:56:51.022Z,24.40
2017-08-17T02:59:19.274Z,24.50
2017-08-17T03:01:46.754Z,24.40
2017-08-17T03:04:14.260Z,24.40
2017-08-17T03:06:41.750Z,24.60
2017-08-17T03:09:09.239Z,24.50
2017-08-17T03:11:37.514Z,24.10
2017-08-17T03:14:05.770Z,23.90
2017-08-17T03:16:33.251Z,23.80
2017-08-17T03:19:01.542Z,23.60
2017-08-17T03:21:29.043Z,23.60
2017-08-17T03:23:56.531Z,23.90
2017-08-17T03:26:24.034Z,24.30
2017-08-17T03:28:51.530Z,24.20
2017-08-17T03:31:19.023Z,23.90
2017-08-17T03:33:47.347Z,23.40
2017-08-17T03:36:14.849Z,23.30
2017-08-17T03:38:42.365Z,23.60
2017-08-17T03:41:09.881Z,23.50
2017-08-17T03:43:38.128Z,23.30
2017-08-17T03:46:05.617Z,23.30
2017-08-17T03:48:33.885Z,23.20
2017-08-17T03:51:01.432Z,23.20
2017-08-17T03:53:28.911Z,23.10
2017-08-17T03:55:57.200Z,23.00
2017-08-17T03:58:25.477Z,22.90
2017-08-17T04:00:53.713Z,22.90
2017-08-17T04:03:21.318Z,22.80
2017-08-17T04:05:49.572Z,22.90
2017-08-17T04:08:18.593Z,22.80
2017-08-17T04:10:46.857Z,22.80
2017-08-17T04:13:15.100Z,22.80
2017-08-17T04:15:42.587Z,22.70
2017-08-17T04:18:10.883Z,22.70
2017-08-17T04:20:38.374Z,22.60
2017-08-17T04:23:05.882Z,22.70
2017-08-17T04:25:33.387Z,22.80
2017-08-17T04:28:00.891Z,22.70
2017-08-17T04:30:28.395Z,22.80
2017-08-17T04:32:55.924Z,22.80
2017-08-17T04:35:24.178Z,22.90
2017-08-17T04:37:51.761Z,22.80
2017-08-17T04:40:20.059Z,22.90
2017-08-17T04:42:47.541Z,22.90
2017-08-17T04:45:15.027Z,22.90
2017-08-17T04:47:42.628Z,22.90
2017-08-17T04:50:10.866Z,22.80
2017-08-17T04:52:38.362Z,22.70
2017-08-17T04:55:07.543Z,22.90
2017-08-17T05:01:02.456Z,22.80
2017-08-17T05:03:29.934Z,22.80
2017-08-17T05:05:58.172Z,22.70
2017-08-17T05:08:25.684Z,22.70
2017-08-17T05:10:53.935Z,22.70
2017-08-17T05:13:21.409Z,22.60
2017-08-17T05:15:49.682Z,22.70
2017-08-17T05:18:17.931Z,22.70
2017-08-17T05:20:45.411Z,22.70
2017-08-17T05:23:13.699Z,22.90
2017-08-17T05:25:41.954Z,23.00
2017-08-17T05:28:09.438Z,22.90
2017-08-17T05:30:37.710Z,22.80
2017-08-17T05:33:05.959Z,23.10
2017-08-17T05:35:33.488Z,23.00
2017-08-17T05:38:00.980Z,23.20
2017-08-17T05:40:28.461Z,23.30
2017-08-17T05:42:55.951Z,23.10
2017-08-17T05:45:23.503Z,23.10
2017-08-17T05:47:50.985Z,23.10
2017-08-17T05:50:18.475Z,23.10
2017-08-17T05:52:45.969Z,23.20
2017-08-17T05:55:14.323Z,23.20
2017-08-17T05:57:41.815Z,23.20
2017-08-17T06:00:10.082Z,23.30
2017-08-17T06:02:38.491Z,23.30
2017-08-17T06:05:06.278Z,23.30
2017-08-17T06:07:34.132Z,23.40
2017-08-17T06:10:01.605Z,23.40
2017-08-17T06:12:29.082Z,23.40
2017-08-17T06:14:56.582Z,23.50
2017-08-17T06:17:24.073Z,23.60
2017-08-17T06:19:51.555Z,23.50
2017-08-17T06:22:19.067Z,23.50
2017-08-17T06:24:46.555Z,23.70
2017-08-17T06:27:14.198Z,23.50
2017-08-17T06:29:41.705Z,23.60
2017-08-17T06:32:09.169Z,23.60
2017-08-17T06:34:36.685Z,23.70
2017-08-17T06:37:04.379Z,24.30
2017-08-17T06:39:31.870Z,24.10
2017-08-17T06:42:00.116Z,24.10
2017-08-17T06:44:27.627Z,24.10
2017-08-17T06:46:55.468Z,24.00
2017-08-17T06:49:24.612Z,24.10
2017-08-17T06:51:52.922Z,24.00
2017-08-17T06:54:20.696Z,24.10
2017-08-17T06:56:48.726Z,24.20
2017-08-17T06:59:17.108Z,24.30
2017-08-17T07:01:44.854Z,24.30
2017-08-17T07:04:14.153Z,24.40
2017-08-17T07:06:42.508Z,24.50
2017-08-17T07:09:11.443Z,24.70
2017-08-17T07:11:39.538Z,24.60
2017-08-17T07:14:07.509Z,24.70
2017-08-17T07:16:35.309Z,24.70
2017-08-17T07:19:04.877Z,24.80
2017-08-17T07:21:32.871Z,24.80
2017-08-17T07:24:00.937Z,24.80
2017-08-17T07:26:29.688Z,24.90
2017-08-17T07:28:57.701Z,24.90
2017-08-17T07:31:28.079Z,25.00
2017-08-17T07:33:55.665Z,25.10
2017-08-17T07:36:24.161Z,25.10
2017-08-17T07:38:52.000Z,25.30
2017-08-17T07:41:20.031Z,25.30
2017-08-17T07:43:48.083Z,25.30
2017-08-17T07:46:16.220Z,25.30
2017-08-17T07:48:44.766Z,25.40
2017-08-17T07:51:12.786Z,25.40
2017-08-17T07:53:41.275Z,25.40
2017-08-17T07:56:09.651Z,25.40
2017-08-17T07:58:43.687Z,25.40
2017-08-17T08:01:11.720Z,25.40
2017-08-17T08:03:40.306Z,25.40
2017-08-17T08:06:08.493Z,25.60
2017-08-17T08:08:36.991Z,25.60
2017-08-17T08:11:05.061Z,25.60
2017-08-17T08:13:33.519Z,25.70
2017-08-17T08:16:01.544Z,25.80
2017-08-17T08:18:29.190Z,25.80
2017-08-17T08:20:56.925Z,25.80
2017-08-17T08:23:25.364Z,25.90
2017-08-17T08:25:53.023Z,25.90
2017-08-17T08:28:22.048Z,26.00
2017-08-17T08:30:52.074Z,25.90
2017-08-17T08:33:20.151Z,26.10
2017-08-17T08:35:48.187Z,26.10
2017-08-17T08:38:16.025Z,26.10
2017-08-17T08:40:44.776Z,26.10
2017-08-17T08:43:12.948Z,26.10
2017-08-17T08:45:42.455Z,26.10
2017-08-17T08:48:10.459Z,26.20
2017-08-17T08:50:38.331Z,26.40
2017-08-17T08:53:06.061Z,26.40
2017-08-17T08:55:35.481Z,26.40
2017-08-17T08:58:03.544Z,26.40
2017-08-17T09:00:31.867Z,26.30
2017-08-17T09:03:00.660Z,26.50
2017-08-17T09:05:29.188Z,26.40
2017-08-17T09:07:57.231Z,26.50
2017-08-17T09:10:25.460Z,26.60
2017-08-17T09:12:53.812Z,26.70
2017-08-17T09:15:22.201Z,26.60
2017-08-17T09:17:50.019Z,26.60
2017-08-17T09:20:18.850Z,26.80
2017-08-17T09:22:46.626Z,26.80
2017-08-17T09:25:14.586Z,26.80
2017-08-17T09:27:42.401Z,26.80
2017-08-17T09:30:09.982Z,26.70
2017-08-17T09:32:38.589Z,27.00
2017-08-17T09:35:06.727Z,26.90
2017-08-17T09:37:34.645Z,26.90
2017-08-17T09:40:02.715Z,27.00
2017-08-17T09:42:30.812Z,27.00
2017-08-17T09:44:58.790Z,26.90
2017-08-17T09:47:26.826Z,27.10
2017-08-17T09:49:54.493Z,27.30
2017-08-17T09:52:22.151Z,27.30
2017-08-17T09:54:50.229Z,27.30
2017-08-17T09:57:19.279Z,27.40
2017-08-17T09:59:47.790Z,27.80
2017-08-17T10:02:15.485Z,27.80
2017-08-17T10:04:43.652Z,29.00
2017-08-17T10:07:12.129Z,29.50
2017-08-17T10:09:40.306Z,29.50
2017-08-17T10:12:08.352Z,29.20
2017-08-17T10:14:37.492Z,29.20
2017-08-17T10:17:05.370Z,29.30
2017-08-17T10:19:33.095Z,29.60
2017-08-17T10:22:01.109Z,29.60
2017-08-17T10:24:28.992Z,29.70
2017-08-17T10:26:57.128Z,29.40
2017-08-17T10:29:24.818Z,29.00
2017-08-17T10:31:52.760Z,28.80
2017-08-17T10:34:21.541Z,28.20
2017-08-17T10:36:49.449Z,28.20
2017-08-17T10:39:17.574Z,28.50
2017-08-17T10:41:45.352Z,28.70
2017-08-17T10:44:14.144Z,28.80
2017-08-17T10:46:41.830Z,28.80
2017-08-17T10:49:10.138Z,28.70
2017-08-17T10:51:38.974Z,29.50
2017-08-17T10:54:07.966Z,29.40
2017-08-17T10:56:35.730Z,29.10
2017-08-17T10:59:03.940Z,29.00
2017-08-17T11:01:31.966Z,29.20
2017-08-17T11:04:00.154Z,28.60
2017-08-17T11:06:28.430Z,29.30
2017-08-17T11:08:56.451Z,29.30
2017-08-17T11:11:24.168Z,29.00
2017-08-17T11:13:52.052Z,29.20
2017-08-17T11:16:19.907Z,29.90
2017-08-17T11:18:47.959Z,30.20
2017-08-17T11:21:15.842Z,29.90
2017-08-17T11:23:44.019Z,29.10
2017-08-17T11:26:11.538Z,28.40
2017-08-17T11:28:39.793Z,28.30
2017-08-17T11:31:07.275Z,28.30
2017-08-17T11:33:35.554Z,28.30
2017-08-17T11:36:03.814Z,28.20
2017-08-17T11:38:31.304Z,28.20
2017-08-17T11:40:58.823Z,28.70
2017-08-17T11:43:26.308Z,28.70
2017-08-17T11:45:54.625Z,28.70
2017-08-17T11:48:22.128Z,28.60
2017-08-17T11:50:49.627Z,28.40
2017-08-17T11:53:17.147Z,28.80
2017-08-17T11:55:44.671Z,29.20
2017-08-17T11:58:12.153Z,29.30
2017-08-17T12:00:39.655Z,28.80
2017-08-17T12:03:07.161Z,28.40
2017-08-17T12:05:34.634Z,28.30
2017-08-17T12:08:02.123Z,28.70
2017-08-17T12:10:30.399Z,28.40
2017-08-17T12:12:58.650Z,28.10
2017-08-17T12:15:26.129Z,28.10
2017-08-17T12:17:54.407Z,28.00
2017-08-17T12:20:22.650Z,28.80
2017-08-17T12:22:50.129Z,28.80
2017-08-17T12:25:17.651Z,29.00
2017-08-17T12:27:45.137Z,29.00
2017-08-17T12:30:12.617Z,28.90
2017-08-17T12:32:40.898Z,28.00
2017-08-17T12:35:09.163Z,28.30
2017-08-17T12:37:36.651Z,28.20
2017-08-17T12:40:04.149Z,28.40
2017-08-17T12:42:31.617Z,28.30
2017-08-17T12:44:59.095Z,28.00
2017-08-17T12:47:26.602Z,28.40
2017-08-17T12:49:54.072Z,28.20
2017-08-17T12:52:21.557Z,28.60
2017-08-17T12:54:49.083Z,29.20
2017-08-17T12:57:16.647Z,28.60
2017-08-17T12:59:44.143Z,28.50
2017-08-17T13:02:11.647Z,28.30
2017-08-17T13:04:39.143Z,27.90
2017-08-17T13:07:06.617Z,28.20
2017-08-17T13:09:34.146Z,28.30
2017-08-17T13:12:01.623Z,28.90
2017-08-17T13:14:29.858Z,29.50
2017-08-17T13:16:57.396Z,29.90
2017-08-17T13:19:25.686Z,28.80
2017-08-17T13:21:53.182Z,28.70
2017-08-17T13:24:20.733Z,29.30
2017-08-17T13:26:48.219Z,29.50
2017-08-17T13:29:15.720Z,29.30
2017-08-17T13:31:44.001Z,29.20
2017-08-17T13:34:12.246Z,29.90
2017-08-17T13:36:39.731Z,29.80
2017-08-17T13:39:07.997Z,29.40
2017-08-17T13:41:36.258Z,28.90
2017-08-17T13:44:03.749Z,28.90
2017-08-17T13:46:31.279Z,29.80
2017-08-17T13:48:58.762Z,29.60
2017-08-17T13:51:27.014Z,28.60
2017-08-17T13:53:54.559Z,28.50
2017-08-17T13:56:22.055Z,29.50
2017-08-17T13:58:50.351Z,28.80
2017-08-17T14:01:17.859Z,28.80
2017-08-17T14:03:45.350Z,29.80
2017-08-17T14:06:13.607Z,29.10
2017-08-17T14:08:41.107Z,29.10
2017-08-17T14:11:08.583Z,30.20
2017-08-17T14:13:36.091Z,30.60
2017-08-17T14:16:03.611Z,30.80
2017-08-17T14:18:31.092Z,30.80
2017-08-17T14:20:58.569Z,29.90
2017-08-17T14:23:26.078Z,30.00
2017-08-17T14:25:53.554Z,29.70
2017-08-17T14:28:21.035Z,29.80
2017-08-17T14:30:48.546Z,29.00
2017-08-17T14:33:16.027Z,28.70
2017-08-17T14:35:43.932Z,29.60
2017-08-17T14:38:11.448Z,29.40
2017-08-17T14:40:38.946Z,29.30
2017-08-17T14:43:06.432Z,29.00
2017-08-17T14:45:34.715Z,28.60
2017-08-17T14:48:02.207Z,28.60
2017-08-17T14:50:29.681Z,28.60
2017-08-17T14:52:57.194Z,29.60
2017-08-17T14:55:24.678Z,29.70
2017-08-17T14:57:52.153Z,29.80
2017-08-17T15:00:19.680Z,30.30
2017-08-17T15:02:47.175Z,29.90
2017-08-17T15:05:14.658Z,29.40
2017-08-17T15:07:42.172Z,29.00
2017-08-17T15:10:09.652Z,29.10
2017-08-17T15:12:37.129Z,29.60
2017-08-17T15:15:04.620Z,29.40
2017-08-17T15:17:32.881Z,29.00
2017-08-17T15:20:01.125Z,29.50
2017-08-17T15:22:28.626Z,29.40
2017-08-17T15:24:56.866Z,29.20
2017-08-17T15:27:24.354Z,29.20
2017-08-17T15:29:52.622Z,29.80
2017-08-17T15:32:20.102Z,29.80
2017-08-17T15:34:48.350Z,30.10
2017-08-17T15:37:15.933Z,30.10
2017-08-17T15:39:44.313Z,30.40
2017-08-17T15:42:12.607Z,30.10
2017-08-17T15:44:40.164Z,30.10
2017-08-17T15:47:07.649Z,29.80
2017-08-17T15:49:35.135Z,29.90
2017-08-17T15:52:02.769Z,29.70
2017-08-17T15:54:30.272Z,30.70
2017-08-17T15:56:57.841Z,30.30
2017-08-17T15:59:25.360Z,30.30
2017-08-17T16:01:53.850Z,30.30
2017-08-17T16:04:21.321Z,30.70
2017-08-17T16:06:48.814Z,31.10
2017-08-17T16:09:17.106Z,31.10
2017-08-17T16:11:44.688Z,31.10
2017-08-17T16:14:12.195Z,30.10
2017-08-17T16:16:39.681Z,30.00
2017-08-17T16:19:07.174Z,30.00
2017-08-17T16:21:34.826Z,30.40
2017-08-17T16:24:02.333Z,31.10
2017-08-17T16:26:29.869Z,31.40
2017-08-17T16:28:57.418Z,31.00
2017-08-17T16:31:24.956Z,31.30
2017-08-17T16:33:53.269Z,31.50
2017-08-17T16:36:20.964Z,31.40
2017-08-17T16:38:48.446Z,31.40
2017-08-17T16:41:15.963Z,31.00
2017-08-17T16:43:43.509Z,30.30
2017-08-17T16:46:11.002Z,30.40
2017-08-17T16:48:39.950Z,30.30
2017-08-17T16:51:08.680Z,30.50
2017-08-17T16:53:36.712Z,30.40
2017-08-17T16:56:05.457Z,30.30
2017-08-17T16:58:34.423Z,30.30
2017-08-17T17:01:02.044Z,30.30
2017-08-17T17:03:29.855Z,30.50
2017-08-17T17:05:58.559Z,30.80
2017-08-17T17:08:27.479Z,30.40
2017-08-17T17:10:56.013Z,30.10
2017-08-17T17:13:24.174Z,30.20
2017-08-17T17:15:52.015Z,30.30
2017-08-17T17:18:19.986Z,30.50
2017-08-17T17:20:47.623Z,30.50
2017-08-17T17:23:15.185Z,30.20
2017-08-17T17:25:42.690Z,30.00
2017-08-17T17:28:10.330Z,30.30
2017-08-17T17:30:37.824Z,29.90
2017-08-17T17:33:05.308Z,29.90
2017-08-17T17:35:33.626Z,30.50
2017-08-17T17:38:01.253Z,30.50
2017-08-17T17:40:29.509Z,30.10
2017-08-17T17:42:57.013Z,30.10
2017-08-17T17:45:24.497Z,30.10
2017-08-17T17:47:52.044Z,30.00
2017-08-17T17:50:19.637Z,30.10
2017-08-17T17:52:47.267Z,30.20
2017-08-17T17:55:15.134Z,30.00
2017-08-17T17:57:42.670Z,30.10
2017-08-17T18:00:10.374Z,30.00
2017-08-17T18:02:38.983Z,29.80
2017-08-17T18:05:06.801Z,29.80
2017-08-17T18:07:34.291Z,29.70
2017-08-17T18:10:01.774Z,29.80
2017-08-17T18:12:29.766Z,30.00
2017-08-17T18:14:58.161Z,29.60
2017-08-17T18:17:26.150Z,29.60
2017-08-17T18:19:53.942Z,29.80
2017-08-17T18:22:21.782Z,29.80
2017-08-17T18:24:49.840Z,29.90
2017-08-17T18:27:17.723Z,29.80
2017-08-17T18:29:47.453Z,29.60
2017-08-17T18:32:15.281Z,29.60
2017-08-17T18:34:44.194Z,29.80
2017-08-17T18:37:12.383Z,29.70
2017-08-17T18:39:40.302Z,29.70
2017-08-17T18:42:09.239Z,29.50
2017-08-17T18:44:38.063Z,29.50
2017-08-17T18:47:05.769Z,29.40
2017-08-17T18:49:33.759Z,29.10
2017-08-17T18:52:01.578Z,29.20
2017-08-17T18:54:29.594Z,29.40
2017-08-17T18:56:57.468Z,29.40
2017-08-17T18:59:26.593Z,29.50
2017-08-17T19:01:54.426Z,29.60
2017-08-17T19:04:22.273Z,29.70
2017-08-17T19:06:50.868Z,29.60
2017-08-17T19:09:19.237Z,29.60
2017-08-17T19:11:47.283Z,29.60
2017-08-17T19:14:15.184Z,29.60
2017-08-17T19:16:43.236Z,29.50
2017-08-17T19:19:12.779Z,29.50
2017-08-17T19:21:40.538Z,29.40
2017-08-17T19:24:08.180Z,29.30
2017-08-17T19:26:36.325Z,29.30
2017-08-17T19:29:03.968Z,29.20
2017-08-17T19:31:31.705Z,29.20
2017-08-17T19:34:00.109Z,29.20
2017-08-17T19:36:28.272Z,29.20
2017-08-17T19:38:56.208Z,29.20
2017-08-17T19:41:24.714Z,29.20
2017-08-17T19:43:52.377Z,29.30
2017-08-17T19:46:20.836Z,29.20
2017-08-17T19:48:48.933Z,29.20
2017-08-17T19:51:16.701Z,29.10
2017-08-17T19:53:44.902Z,29.10
2017-08-17T19:56:12.436Z,29.20
2017-08-17T19:58:39.941Z,29.20
2017-08-17T20:01:07.478Z,29.10
2017-08-17T20:03:34.989Z,28.90
2017-08-17T20:06:02.479Z,29.00
2017-08-17T20:08:29.961Z,29.10
2017-08-17T20:10:57.505Z,29.00
2017-08-17T20:13:25.009Z,29.10
2017-08-17T20:15:53.281Z,29.00
2017-08-17T20:18:21.570Z,29.00
2017-08-17T20:20:49.829Z,28.80
2017-08-17T20:23:17.345Z,28.70
2017-08-17T20:25:44.886Z,28.80
2017-08-17T20:28:12.382Z,28.70
2017-08-17T20:30:40.939Z,28.80
2017-08-17T20:33:08.452Z,28.70
2017-08-17T20:35:35.941Z,28.70
2017-08-17T20:38:03.477Z,28.40
2017-08-17T20:40:30.995Z,28.30
2017-08-17T20:42:58.480Z,28.40
2017-08-17T20:45:25.962Z,28.60
2017-08-17T20:47:54.239Z,28.60
2017-08-17T20:50:22.481Z,28.50
2017-08-17T20:52:49.962Z,28.50
2017-08-17T20:55:17.482Z,28.40
2017-08-17T20:57:44.978Z,28.20
2017-08-17T21:00:12.466Z,28.30
2017-08-17T21:02:39.985Z,28.40
2017-08-17T21:05:07.472Z,28.20
2017-08-17T21:07:35.727Z,28.30
2017-08-17T21:10:03.216Z,28.20
2017-08-17T21:12:31.462Z,28.30
2017-08-17T21:14:58.950Z,28.20
2017-08-17T21:17:27.227Z,28.20
2017-08-17T21:19:55.803Z,28.10
2017-08-17T21:22:23.287Z,28.00
2017-08-17T21:24:51.672Z,28.00
2017-08-17T21:27:19.985Z,27.90
2017-08-17T21:29:47.551Z,27.90
2017-08-17T21:32:15.209Z,27.90
2017-08-17T21:34:42.690Z,27.80
2017-08-17T21:37:10.509Z,27.80
2017-08-17T21:39:38.020Z,27.80
2017-08-17T21:42:05.526Z,27.80
2017-08-17T21:44:33.474Z,27.80
2017-08-17T21:47:00.982Z,27.80
2017-08-17T21:49:28.466Z,27.70
2017-08-17T21:51:55.953Z,27.80
2017-08-17T21:54:23.463Z,27.70
2017-08-17T21:56:51.731Z,27.60
2017-08-17T21:59:19.217Z,27.60
2017-08-17T22:01:46.729Z,27.60
2017-08-17T22:04:14.210Z,27.60
2017-08-17T22:06:41.699Z,27.60
2017-08-17T22:09:09.208Z,27.60
2017-08-17T22:11:36.691Z,27.60
2017-08-17T22:14:04.172Z,27.60
2017-08-17T22:16:31.677Z,27.50
2017-08-17T22:18:59.157Z,27.60
2017-08-17T22:21:26.638Z,27.50
2017-08-17T22:23:54.146Z,27.50
2017-08-17T22:26:21.634Z,27.50
2017-08-17T22:28:49.130Z,27.40
2017-08-17T22:31:17.401Z,27.40
2017-08-17T22:33:44.894Z,27.40
2017-08-17T22:36:12.378Z,27.30
2017-08-17T22:38:39.872Z,27.30
2017-08-17T22:41:07.346Z,27.30
2017-08-17T22:43:35.589Z,27.20
2017-08-17T22:46:03.097Z,27.20
2017-08-17T22:48:31.355Z,27.10
2017-08-17T22:50:58.833Z,27.10
2017-08-17T22:53:27.100Z,27.10
2017-08-17T22:55:54.597Z,27.10
2017-08-17T22:58:22.082Z,27.10
2017-08-17T23:00:49.603Z,27.10
2017-08-17T23:03:17.086Z,27.00
2017-08-17T23:05:44.633Z,27.00
2017-08-17T23:08:12.149Z,26.90
2017-08-17T23:10:40.405Z,26.80
2017-08-17T23:13:07.899Z,26.70
2017-08-17T23:15:36.179Z,26.80
2017-08-17T23:18:04.423Z,26.70
2017-08-17T23:20:31.901Z,26.60
2017-08-17T23:23:00.162Z,26.70
2017-08-17T23:25:27.637Z,26.70
2017-08-17T23:27:55.888Z,26.60
2017-08-17T23:30:23.401Z,26.60
2017-08-17T23:32:50.890Z,26.60
2017-08-17T23:35:18.387Z,26.50
2017-08-17T23:37:46.661Z,26.30
2017-08-17T23:40:14.156Z,26.30
2017-08-17T23:42:41.629Z,26.30
2017-08-17T23:45:09.129Z,26.30
2017-08-17T23:47:36.600Z,26.20
2017-08-17T23:50:04.111Z,26.10
2017-08-17T23:52:31.605Z,26.10
2017-08-17T23:54:59.096Z,26.10
2017-08-17T23:57:26.582Z,26.10
2017-08-17T23:59:54.093Z,25.90
